createdAt,value
2018-03-02T00:00:52.217Z,1
2018-03-02T00:01:55.202Z,0.9
2018-03-02T00:02:57.611Z,1
2018-03-02T00:04:00.018Z,0.9
2018-03-02T00:05:02.432Z,0.9
2018-03-02T00:06:04.838Z,0.9
2018-03-02T00:07:07.818Z,0.9
2018-03-02T00:08:10.236Z,1.2
2018-03-02T00:09:12.954Z,1.2
2018-03-02T00:10:15.363Z,1.1
2018-03-02T00:11:18.075Z,1.2
2018-03-02T00:12:20.475Z,1.1
2018-03-02T00:13:22.889Z,1.3
2018-03-02T00:14:25.596Z,1.1
2018-03-02T00:15:28.008Z,1.2
2018-03-02T00:16:30.416Z,1
2018-03-02T00:17:32.829Z,1.1
2018-03-02T00:18:35.526Z,0.9
2018-03-02T00:19:38.213Z,0.9
2018-03-02T00:20:40.900Z,0.9
2018-03-02T00:21:43.608Z,0.9
2018-03-02T00:22:46.013Z,0.9
2018-03-02T00:23:48.694Z,0.9
2018-03-02T00:24:51.097Z,0.9
2018-03-02T00:25:53.790Z,0.9
2018-03-02T00:26:56.201Z,0.9
2018-03-02T00:27:58.619Z,1.2
2018-03-02T00:29:01.323Z,1.1
2018-03-02T00:30:03.730Z,1.1
2018-03-02T00:31:06.146Z,1.1
2018-03-02T00:32:08.843Z,1.2
2018-03-02T00:33:11.253Z,1.1
2018-03-02T00:34:13.659Z,0.9
2018-03-02T00:35:16.068Z,0.9
2018-03-02T00:36:18.489Z,0.9
2018-03-02T00:37:21.194Z,0.9
2018-03-02T00:38:23.600Z,0.9
2018-03-02T00:39:26.595Z,0.9
2018-03-02T00:40:29.004Z,1.2
2018-03-02T00:41:31.420Z,0.8
2018-03-02T00:42:34.111Z,1
2018-03-02T00:43:36.790Z,1.1
2018-03-02T00:44:39.204Z,1.1
2018-03-02T00:45:41.624Z,1.3
2018-03-02T00:46:44.026Z,1.1
2018-03-02T00:47:46.435Z,1
2018-03-02T00:48:48.843Z,1
2018-03-02T00:49:51.244Z,0.9
2018-03-02T00:50:53.651Z,1
2018-03-02T00:51:56.350Z,0.9
2018-03-02T00:52:58.764Z,0.9
2018-03-02T00:54:01.470Z,0.9
2018-03-02T00:55:03.870Z,0.9
2018-03-02T00:56:06.302Z,1.1
2018-03-02T00:57:09.019Z,1.3
2018-03-02T00:58:11.434Z,1.2
2018-03-02T00:59:13.841Z,1.2
2018-03-02T01:00:16.243Z,1.1
2018-03-02T01:01:18.646Z,1
2018-03-02T01:02:21.353Z,1.1
2018-03-02T01:03:23.761Z,1
2018-03-02T01:04:26.473Z,0.9
2018-03-02T01:05:28.887Z,1.1
2018-03-02T01:06:31.288Z,0.9
2018-03-02T01:07:33.702Z,0.9
2018-03-02T01:08:36.401Z,1.4
2018-03-02T01:09:38.800Z,1.2
2018-03-02T01:10:41.495Z,1.1
2018-03-02T01:11:43.903Z,1.2
2018-03-02T01:12:46.312Z,1.2
2018-03-02T01:13:48.715Z,1.2
2018-03-02T01:14:51.126Z,0.9
2018-03-02T01:15:53.811Z,1.2
2018-03-02T01:16:56.227Z,0.9
2018-03-02T01:17:58.625Z,0.9
2018-03-02T01:19:01.016Z,0.9
2018-03-02T01:20:03.428Z,0.9
2018-03-02T01:21:05.830Z,0.9
2018-03-02T01:22:08.532Z,1.1
2018-03-02T01:23:10.940Z,1.3
2018-03-02T01:24:13.345Z,1.2
2018-03-02T01:25:15.755Z,1.1
2018-03-02T01:26:18.171Z,1.2
2018-03-02T01:27:20.850Z,1.1
2018-03-02T01:28:23.256Z,1.1
2018-03-02T01:29:25.671Z,0.9
2018-03-02T01:30:28.063Z,0.9
2018-03-02T01:31:31.038Z,0.9
2018-03-02T01:32:33.442Z,0.9
2018-03-02T01:33:35.835Z,0.9
2018-03-02T01:34:38.244Z,0.9
2018-03-02T01:35:40.643Z,1.1
2018-03-02T01:36:43.046Z,1.2
2018-03-02T01:37:45.458Z,1.2
2018-03-02T01:38:48.150Z,1.3
2018-03-02T01:39:50.562Z,1
2018-03-02T01:40:52.970Z,1.3
2018-03-02T01:41:55.375Z,0.9
2018-03-02T01:42:58.352Z,0.9
2018-03-02T01:44:00.757Z,1
2018-03-02T01:45:03.456Z,0.9
2018-03-02T01:46:05.853Z,0.9
2018-03-02T01:47:08.544Z,0.9
2018-03-02T01:48:10.935Z,0.9
2018-03-02T01:49:13.337Z,0.9
2018-03-02T01:50:15.745Z,1.2
2018-03-02T01:51:18.438Z,1.2
2018-03-02T01:52:20.839Z,1.2
2018-03-02T01:53:23.535Z,1.3
2018-03-02T01:54:25.937Z,1.1
2018-03-02T01:55:28.340Z,1.1
2018-03-02T01:56:30.744Z,0.9
2018-03-02T01:57:33.141Z,1
2018-03-02T01:58:35.544Z,0.9
2018-03-02T01:59:37.951Z,0.9
2018-03-02T02:00:40.354Z,0.9
2018-03-02T02:01:42.758Z,1.2
2018-03-02T02:02:45.160Z,1.1
2018-03-02T02:03:47.563Z,1.3
2018-03-02T02:04:50.259Z,1.2
2018-03-02T02:05:52.951Z,1.1
2018-03-02T02:06:55.343Z,1.2
2018-03-02T02:07:57.753Z,1.1
2018-03-02T02:09:00.442Z,0.9
2018-03-02T02:10:02.846Z,1
2018-03-02T02:11:05.254Z,0.9
2018-03-02T02:12:07.950Z,0.9
2018-03-02T02:13:10.350Z,0.9
2018-03-02T02:14:12.765Z,0.9
2018-03-02T02:15:15.749Z,0.9
2018-03-02T02:16:18.155Z,0.9
2018-03-02T02:17:20.545Z,0.9
2018-03-02T02:18:22.958Z,1.2
2018-03-02T02:19:25.642Z,1.1
2018-03-02T02:20:28.045Z,1.3
2018-03-02T02:21:30.449Z,1.1
2018-03-02T02:22:33.137Z,1.1
2018-03-02T02:23:35.539Z,1.1
2018-03-02T02:24:37.945Z,0.9
2018-03-02T02:25:40.337Z,0.9
2018-03-02T02:26:42.737Z,0.9
2018-03-02T02:27:45.149Z,0.9
2018-03-02T02:28:47.547Z,0.9
2018-03-02T02:29:50.243Z,1.1
2018-03-02T02:30:52.927Z,1.2
2018-03-02T02:31:55.610Z,1.1
2018-03-02T02:32:58.634Z,1.2
2018-03-02T02:34:01.033Z,1.2
2018-03-02T02:35:04.029Z,1.1
2018-03-02T02:36:06.425Z,1.2
2018-03-02T02:37:08.829Z,1.1
2018-03-02T02:38:11.231Z,1.1
2018-03-02T02:39:13.643Z,1.3
2018-03-02T02:40:16.058Z,0.9
2018-03-02T02:41:18.724Z,0.9
2018-03-02T02:42:21.135Z,1.2
2018-03-02T02:43:23.533Z,0.9
2018-03-02T02:44:25.933Z,0.9
2018-03-02T02:45:28.335Z,0.9
2018-03-02T02:46:30.744Z,0.9
2018-03-02T02:47:33.442Z,1.1
2018-03-02T02:48:35.850Z,1.1
2018-03-02T02:49:38.255Z,1.1
2018-03-02T02:50:40.682Z,1.2
2018-03-02T02:51:43.056Z,1.2
2018-03-02T02:52:46.677Z,1.1
2018-03-02T02:53:49.085Z,1.3
2018-03-02T02:54:51.485Z,1.2
2018-03-02T02:55:53.884Z,1.1
2018-03-02T02:56:56.286Z,1.1
2018-03-02T02:57:58.965Z,1
2018-03-02T02:59:01.380Z,0.9
2018-03-02T03:00:03.781Z,0.9
2018-03-02T03:01:06.468Z,0.9
2018-03-02T03:02:09.170Z,0.9
2018-03-02T03:03:11.577Z,0.9
2018-03-02T03:04:13.973Z,0.9
2018-03-02T03:05:16.968Z,1.2
2018-03-02T03:06:19.365Z,1.4
2018-03-02T03:07:22.052Z,0.9
2018-03-02T03:08:24.458Z,1.1
2018-03-02T03:09:27.143Z,1.1
2018-03-02T03:10:29.549Z,1.2
2018-03-02T03:11:32.520Z,1.4
2018-03-02T03:12:34.915Z,1.5
2018-03-02T03:13:37.327Z,1.2
2018-03-02T03:14:39.730Z,1
2018-03-02T03:15:42.411Z,0.9
2018-03-02T03:16:44.817Z,1.1
2018-03-02T03:17:47.219Z,0.9
2018-03-02T03:18:49.619Z,0.9
2018-03-02T03:19:52.312Z,0.9
2018-03-02T03:20:54.714Z,0.8
2018-03-02T03:21:57.116Z,0.9
2018-03-02T03:22:59.513Z,1.1
2018-03-02T03:24:01.922Z,1.1
2018-03-02T03:25:04.321Z,1.1
2018-03-02T03:26:07.006Z,1.1
2018-03-02T03:27:09.693Z,1.1
2018-03-02T03:28:12.678Z,1
2018-03-02T03:29:15.084Z,1.2
2018-03-02T03:30:17.486Z,1.1
2018-03-02T03:31:19.890Z,1
2018-03-02T03:32:22.297Z,1.1
2018-03-02T03:33:24.698Z,0.8
2018-03-02T03:34:27.095Z,0.9
2018-03-02T03:35:29.498Z,0.9
2018-03-02T03:36:31.894Z,0.9
2018-03-02T03:37:34.575Z,1.1
2018-03-02T03:38:36.976Z,1.1
2018-03-02T03:39:39.379Z,1.1
2018-03-02T03:40:41.776Z,1.2
2018-03-02T03:41:44.180Z,1.1
2018-03-02T03:42:46.580Z,1
2018-03-02T03:43:48.981Z,0.9
2018-03-02T03:44:51.391Z,0.9
2018-03-02T03:45:53.797Z,0.9
2018-03-02T03:46:56.189Z,0.9
2018-03-02T03:47:58.886Z,1.2
2018-03-02T03:49:01.280Z,1.3
2018-03-02T03:50:03.685Z,1.2
2018-03-02T03:51:06.371Z,1.1
2018-03-02T03:52:08.773Z,1.4
2018-03-02T03:53:11.172Z,1.1
2018-03-02T03:54:13.579Z,1.1
2018-03-02T03:55:15.981Z,1
2018-03-02T03:56:18.380Z,0.9
2018-03-02T03:57:20.780Z,0.9
2018-03-02T03:58:23.183Z,0.9
2018-03-02T03:59:25.578Z,0.9
2018-03-02T04:00:27.980Z,1.1
2018-03-02T04:01:30.675Z,1.2
2018-03-02T04:02:33.078Z,1.3
2018-03-02T04:03:35.479Z,1
2018-03-02T04:04:38.170Z,1
2018-03-02T04:05:40.561Z,1
2018-03-02T04:06:42.963Z,0.9
2018-03-02T04:07:45.374Z,0.9
2018-03-02T04:08:47.769Z,0.9
2018-03-02T04:09:50.169Z,0.9
2018-03-02T04:10:52.858Z,0.9
2018-03-02T04:11:55.256Z,0.9
2018-03-02T04:12:57.660Z,0.9
2018-03-02T04:14:00.060Z,1.1
2018-03-02T04:15:02.450Z,1.2
2018-03-02T04:16:04.851Z,1.4
2018-03-02T04:17:07.252Z,1
2018-03-02T04:18:09.652Z,1
2018-03-02T04:19:12.043Z,1
2018-03-02T04:20:14.451Z,0.9
2018-03-02T04:21:16.849Z,0.9
2018-03-02T04:22:19.245Z,0.9
2018-03-02T04:23:21.705Z,1.3
2018-03-02T04:24:24.054Z,1.1
2018-03-02T04:25:26.452Z,1.3
2018-03-02T04:26:28.858Z,1.1
2018-03-02T04:27:31.253Z,1
2018-03-02T04:28:33.934Z,1
2018-03-02T04:29:36.344Z,1
2018-03-02T04:30:39.018Z,1
2018-03-02T04:31:41.423Z,0.9
2018-03-02T04:32:43.828Z,0.9
2018-03-02T04:33:46.508Z,0.8
2018-03-02T04:34:48.907Z,0.8
2018-03-02T04:35:51.307Z,0.9
2018-03-02T04:36:53.705Z,1.2
2018-03-02T04:37:56.108Z,1
2018-03-02T04:38:58.517Z,1.2
2018-03-02T04:40:00.910Z,1.1
2018-03-02T04:41:03.317Z,1.1
2018-03-02T04:42:05.711Z,0.9
2018-03-02T04:43:08.109Z,0.9
2018-03-02T04:44:10.509Z,0.9
2018-03-02T04:45:12.911Z,0.9
2018-03-02T04:46:15.306Z,0.9
2018-03-02T04:47:17.704Z,1.1
2018-03-02T04:48:20.108Z,1.2
2018-03-02T04:49:22.801Z,1
2018-03-02T04:50:25.204Z,1.2
2018-03-02T04:51:27.893Z,1
2018-03-02T04:52:30.292Z,1
2018-03-02T04:53:32.998Z,1.1
2018-03-02T04:54:35.442Z,0.9
2018-03-02T04:55:37.789Z,0.9
2018-03-02T04:56:40.483Z,1
2018-03-02T04:57:42.881Z,1
2018-03-02T04:58:45.282Z,0.9
2018-03-02T04:59:47.684Z,0.9
2018-03-02T05:00:50.375Z,1.2
2018-03-02T05:01:52.776Z,1.2
2018-03-02T05:02:55.178Z,1.2
2018-03-02T05:03:57.589Z,1.2
2018-03-02T05:04:59.983Z,1.2
2018-03-02T05:06:02.394Z,1
2018-03-02T05:07:04.796Z,1
2018-03-02T05:08:07.206Z,0.9
2018-03-02T05:09:09.603Z,0.9
2018-03-02T05:10:11.997Z,0.9
2018-03-02T05:11:14.389Z,0.9
2018-03-02T05:12:16.791Z,0.9
2018-03-02T05:13:19.477Z,1.2
2018-03-02T05:14:21.880Z,1.3
2018-03-02T05:15:24.285Z,1.3
2018-03-02T05:16:27.259Z,1.2
2018-03-02T05:17:29.655Z,1.2
2018-03-02T05:18:32.351Z,1.1
2018-03-02T05:19:34.752Z,1.2
2018-03-02T05:20:37.163Z,1.1
2018-03-02T05:21:39.916Z,1
2018-03-02T05:22:42.268Z,1
2018-03-02T05:23:44.948Z,0.9
2018-03-02T05:24:47.645Z,0.9
2018-03-02T05:25:50.046Z,0.9
2018-03-02T05:26:52.759Z,0.9
2018-03-02T05:27:55.161Z,0.9
2018-03-02T05:28:57.575Z,0.9
2018-03-02T05:29:59.967Z,0.9
2018-03-02T05:31:02.670Z,1.2
2018-03-02T05:32:05.653Z,1.4
2018-03-02T05:33:08.620Z,1.3
2018-03-02T05:34:11.019Z,1.3
2018-03-02T05:35:13.425Z,0.9
2018-03-02T05:36:15.820Z,1.2
2018-03-02T05:37:18.523Z,1.2
2018-03-02T05:38:20.919Z,1.1
2018-03-02T05:39:23.614Z,1.1
2018-03-02T05:40:26.019Z,1.2
2018-03-02T05:41:28.412Z,1.2
2018-03-02T05:42:30.812Z,0.9
2018-03-02T05:43:33.222Z,1.1
2018-03-02T05:44:35.618Z,0.9
2018-03-02T05:45:38.326Z,0.9
2018-03-02T05:46:40.729Z,0.9
2018-03-02T05:47:43.413Z,0.9
2018-03-02T05:48:45.814Z,0.9
2018-03-02T05:49:48.214Z,0.9
2018-03-02T05:50:50.614Z,1.2
2018-03-02T05:51:53.014Z,1.2
2018-03-02T05:52:55.416Z,1.1
2018-03-02T05:53:57.805Z,1
2018-03-02T05:55:00.213Z,1
2018-03-02T05:56:02.614Z,1.1
2018-03-02T05:57:05.295Z,0.9
2018-03-02T05:58:07.702Z,0.9
2018-03-02T05:59:10.442Z,0.9
2018-03-02T06:00:12.845Z,0.9
2018-03-02T06:01:15.538Z,0.9
2018-03-02T06:02:17.938Z,0.9
2018-03-02T06:03:20.333Z,0.9
2018-03-02T06:04:22.741Z,1.2
2018-03-02T06:05:25.423Z,1.2
2018-03-02T06:06:27.822Z,1.2
2018-03-02T06:07:30.537Z,1.1
2018-03-02T06:08:32.923Z,1.3
2018-03-02T06:09:35.910Z,1.1
2018-03-02T06:10:38.322Z,1.2
2018-03-02T06:11:40.712Z,1.1
2018-03-02T06:12:43.124Z,1.1
2018-03-02T06:13:45.521Z,0.9
2018-03-02T06:14:47.926Z,0.9
2018-03-02T06:15:50.327Z,0.9
2018-03-02T06:16:52.726Z,0.9
2018-03-02T06:17:55.133Z,0.9
2018-03-02T06:18:57.528Z,1.3
2018-03-02T06:19:59.937Z,1.1
2018-03-02T06:21:02.627Z,1.2
2018-03-02T06:22:05.024Z,1.2
2018-03-02T06:23:07.429Z,1.1
2018-03-02T06:24:09.836Z,1.1
2018-03-02T06:25:12.518Z,0.9
2018-03-02T06:26:15.213Z,1.1
2018-03-02T06:27:17.612Z,0.9
2018-03-02T06:28:20.008Z,0.9
2018-03-02T06:29:23.006Z,1
2018-03-02T06:30:25.403Z,0.9
2018-03-02T06:31:28.102Z,0.9
2018-03-02T06:32:30.495Z,0.9
2018-03-02T06:33:32.889Z,0.9
2018-03-02T06:34:35.284Z,1
2018-03-02T06:35:37.688Z,1.2
2018-03-02T06:36:40.080Z,1.2
2018-03-02T06:37:42.488Z,1.3
2018-03-02T06:38:45.166Z,1
2018-03-02T06:39:47.570Z,1.1
2018-03-02T06:40:49.970Z,1.1
2018-03-02T06:41:52.378Z,0.9
2018-03-02T06:42:54.773Z,0.9
2018-03-02T06:43:57.175Z,0.9
2018-03-02T06:44:59.869Z,0.9
2018-03-02T06:46:02.258Z,0.9
2018-03-02T06:47:04.662Z,0.9
2018-03-02T06:48:07.338Z,1.1
2018-03-02T06:49:09.745Z,1.3
2018-03-02T06:50:12.132Z,1.2
2018-03-02T06:51:14.548Z,1.1
2018-03-02T06:52:16.948Z,1.2
2018-03-02T06:53:19.357Z,0.9
2018-03-02T06:54:21.771Z,0.9
2018-03-02T06:55:24.161Z,0.9
2018-03-02T06:56:26.553Z,0.9
2018-03-02T06:57:28.958Z,0.9
2018-03-02T06:58:31.351Z,1.1
2018-03-02T06:59:33.754Z,1
2018-03-02T07:00:36.158Z,1.2
2018-03-02T07:01:38.551Z,1.1
2018-03-02T07:02:41.235Z,1.1
2018-03-02T07:03:43.640Z,1.1
2018-03-02T07:04:46.322Z,1.1
2018-03-02T07:05:48.719Z,0.9
2018-03-02T07:06:51.115Z,0.9
2018-03-02T07:07:53.510Z,0.9
2018-03-02T07:08:55.918Z,0.9
2018-03-02T07:09:58.317Z,1.1
2018-03-02T07:11:00.716Z,1.3
2018-03-02T07:12:03.115Z,1.2
2018-03-02T07:13:05.817Z,1.2
2018-03-02T07:14:08.533Z,1.1
2018-03-02T07:15:10.997Z,1.2
2018-03-02T07:16:14.990Z,1.1
2018-03-02T07:17:17.934Z,1.2
2018-03-02T07:18:20.300Z,1.3
2018-03-02T07:19:22.714Z,0.9
2018-03-02T07:20:25.116Z,1.2
2018-03-02T07:21:27.551Z,1.3
2018-03-02T07:22:29.929Z,1.1
2018-03-02T07:23:32.326Z,1.2
2018-03-02T07:24:34.724Z,1.1
2018-03-02T07:25:37.127Z,0.9
2018-03-02T07:26:39.525Z,0.9
2018-03-02T07:27:42.210Z,0.9
2018-03-02T07:28:44.614Z,0.9
2018-03-02T07:29:47.011Z,0.9
2018-03-02T07:30:49.414Z,1.2
2018-03-02T07:31:51.816Z,1.1
2018-03-02T07:32:54.215Z,1.2
2018-03-02T07:33:56.626Z,1.1
2018-03-02T07:34:59.027Z,0.9
2018-03-02T07:36:01.436Z,0.9
2018-03-02T07:37:04.133Z,0.9
2018-03-02T07:38:06.542Z,0.9
2018-03-02T07:39:09.226Z,0.9
2018-03-02T07:40:11.627Z,0.9
2018-03-02T07:41:14.032Z,0.9
2018-03-02T07:42:16.712Z,0.9
2018-03-02T07:43:19.113Z,0.9
2018-03-02T07:44:22.148Z,1.2
2018-03-02T07:45:24.558Z,1.3
2018-03-02T07:46:26.956Z,1.3
2018-03-02T07:47:29.361Z,1.2
2018-03-02T07:48:31.766Z,1.2
2018-03-02T07:49:34.161Z,1.1
2018-03-02T07:50:36.569Z,1.1
2018-03-02T07:51:38.971Z,0.9
2018-03-02T07:52:41.375Z,0.9
2018-03-02T07:53:43.776Z,0.9
2018-03-02T07:54:46.177Z,0.9
2018-03-02T07:55:48.577Z,0.9
2018-03-02T07:56:50.993Z,1.2
2018-03-02T07:57:53.391Z,1.1
2018-03-02T07:58:56.090Z,1.2
2018-03-02T07:59:58.500Z,1.2
2018-03-02T08:01:01.179Z,1
2018-03-02T08:02:03.588Z,1.2
2018-03-02T08:03:06.001Z,1.2
2018-03-02T08:04:08.405Z,1.1
2018-03-02T08:05:10.806Z,0.9
2018-03-02T08:06:13.211Z,0.9
2018-03-02T08:07:15.613Z,0.9
2018-03-02T08:08:18.028Z,0.9
2018-03-02T08:09:20.434Z,1.2
2018-03-02T08:10:22.836Z,1.3
2018-03-02T08:11:25.248Z,1.1
2018-03-02T08:12:27.662Z,1.2
2018-03-02T08:13:30.066Z,1
2018-03-02T08:14:32.478Z,0.9
2018-03-02T08:15:34.884Z,0.9
2018-03-02T08:16:37.285Z,0.9
2018-03-02T08:17:39.696Z,1.1
2018-03-02T08:18:42.111Z,1
2018-03-02T08:19:44.520Z,1.3
2018-03-02T08:20:46.935Z,1.2
2018-03-02T08:21:49.344Z,1
2018-03-02T08:22:52.038Z,0.9
2018-03-02T08:23:54.451Z,1.1
2018-03-02T08:24:56.865Z,1
2018-03-02T08:25:59.305Z,1
2018-03-02T08:27:01.681Z,1.1
2018-03-02T08:28:04.087Z,1.3
2018-03-02T08:29:06.496Z,1.2
2018-03-02T08:30:08.907Z,1.3
2018-03-02T08:31:11.906Z,1.1
2018-03-02T08:32:14.307Z,1
2018-03-02T08:33:16.719Z,1.1
2018-03-02T08:34:19.141Z,1
2018-03-02T08:35:21.552Z,0.9
2018-03-02T08:36:23.968Z,1
2018-03-02T08:37:26.380Z,1.3
2018-03-02T08:38:29.101Z,1.2
2018-03-02T08:39:31.521Z,1.2
2018-03-02T08:40:34.415Z,1.3
2018-03-02T08:41:38.570Z,1.2
2018-03-02T08:42:45.206Z,1.2
2018-03-02T08:43:47.767Z,1.1
2018-03-02T08:44:50.174Z,1
2018-03-02T08:45:52.875Z,1
2018-03-02T08:46:55.287Z,1.1
2018-03-02T08:47:57.710Z,1
2018-03-02T08:49:00.125Z,1.1
2018-03-02T08:50:02.548Z,1.3
2018-03-02T08:51:05.252Z,1.2
2018-03-02T08:52:08.528Z,1.3
2018-03-02T08:53:10.939Z,1.5
2018-03-02T08:54:13.355Z,1.2
2018-03-02T08:55:15.761Z,1.3
2018-03-02T08:56:18.181Z,1.2
2018-03-02T08:57:20.579Z,1
2018-03-02T08:58:23.004Z,1
2018-03-02T08:59:25.414Z,1.4
2018-03-02T09:00:28.118Z,1.1
2018-03-02T09:01:30.522Z,1.5
2018-03-02T09:02:32.938Z,1.2
2018-03-02T09:03:35.354Z,1.3
2018-03-02T09:04:37.776Z,1.1
2018-03-02T09:05:40.183Z,1
2018-03-02T09:06:42.880Z,1
2018-03-02T09:07:45.299Z,1.4
2018-03-02T09:08:47.713Z,1.3
2018-03-02T09:09:50.125Z,1.4
2018-03-02T09:10:52.845Z,1.5
2018-03-02T09:11:55.255Z,1.4
2018-03-02T09:12:57.660Z,1.3
2018-03-02T09:14:00.077Z,1
2018-03-02T09:15:02.780Z,1.1
2018-03-02T09:16:05.195Z,1.1
2018-03-02T09:17:07.896Z,1.5
2018-03-02T09:18:10.318Z,1.5
2018-03-02T09:19:13.038Z,1.6
2018-03-02T09:20:15.467Z,1.4
2018-03-02T09:21:17.882Z,1.3
2018-03-02T09:22:20.291Z,1.4
2018-03-02T09:23:22.714Z,1.1
2018-03-02T09:24:25.132Z,1.1
2018-03-02T09:25:27.549Z,1.1
2018-03-02T09:26:29.964Z,1.4
2018-03-02T09:27:32.382Z,1.4
2018-03-02T09:28:34.793Z,1.4
2018-03-02T09:29:37.216Z,1.3
2018-03-02T09:30:39.638Z,1.1
2018-03-02T09:31:42.046Z,1.1
2018-03-02T09:32:44.467Z,1.1
2018-03-02T09:33:47.177Z,1.1
2018-03-02T09:34:49.608Z,1.5
2018-03-02T09:35:52.622Z,1.4
2018-03-02T09:36:55.320Z,1.5
2018-03-02T09:37:58.025Z,1.4
2018-03-02T09:39:00.448Z,1.4
2018-03-02T09:40:02.869Z,1.5
2018-03-02T09:41:05.281Z,1.4
2018-03-02T09:42:07.695Z,1.1
2018-03-02T09:43:10.112Z,1.1
2018-03-02T09:44:12.531Z,1.1
2018-03-02T09:45:14.959Z,1.4
2018-03-02T09:46:17.363Z,1.4
2018-03-02T09:47:20.073Z,1.4
2018-03-02T09:48:22.495Z,1.3
2018-03-02T09:49:24.911Z,1.3
2018-03-02T09:50:27.333Z,1.1
2018-03-02T09:51:30.046Z,1.1
2018-03-02T09:52:32.459Z,1.1
2018-03-02T09:53:34.881Z,1.4
2018-03-02T09:54:37.302Z,1.5
2018-03-02T09:55:40.015Z,1.4
2018-03-02T09:56:42.750Z,1.4
2018-03-02T09:57:45.164Z,1.3
2018-03-02T09:58:47.588Z,1.3
2018-03-02T09:59:50.036Z,1.1
2018-03-02T10:00:52.426Z,1.1
2018-03-02T10:01:54.842Z,1.1
2018-03-02T10:02:57.263Z,1.5
2018-03-02T10:03:59.673Z,1.4
2018-03-02T10:05:02.390Z,1.4
2018-03-02T10:06:04.799Z,1.1
2018-03-02T10:07:07.224Z,1.1
2018-03-02T10:08:09.633Z,1.1
2018-03-02T10:09:12.051Z,1.1
2018-03-02T10:10:14.470Z,1.4
2018-03-02T10:11:16.889Z,1.4
2018-03-02T10:12:19.313Z,1.4
2018-03-02T10:13:21.735Z,1.6
2018-03-02T10:14:24.151Z,1.1
2018-03-02T10:15:26.592Z,1.1
2018-03-02T10:16:29.319Z,1.1
2018-03-02T10:17:31.709Z,1.4
2018-03-02T10:18:34.421Z,1.5
2018-03-02T10:19:36.841Z,1.6
2018-03-02T10:20:39.551Z,1.3
2018-03-02T10:21:41.979Z,1.4
2018-03-02T10:22:44.399Z,1.2
2018-03-02T10:23:46.820Z,1.2
2018-03-02T10:24:49.243Z,1.1
2018-03-02T10:25:51.660Z,1.1
2018-03-02T10:26:54.371Z,1.4
2018-03-02T10:27:56.801Z,1.6
2018-03-02T10:28:59.225Z,1.5
2018-03-02T10:30:01.645Z,1.3
2018-03-02T10:31:04.075Z,1.2
2018-03-02T10:32:06.776Z,1.1
2018-03-02T10:33:09.186Z,1.1
2018-03-02T10:34:11.610Z,1.1
2018-03-02T10:35:14.026Z,1.5
2018-03-02T10:36:16.446Z,1.4
2018-03-02T10:37:19.154Z,1.4
2018-03-02T10:38:21.565Z,1.3
2018-03-02T10:39:23.992Z,1.1
2018-03-02T10:40:26.710Z,1.1
2018-03-02T10:41:29.170Z,1.1
2018-03-02T10:42:31.832Z,1.2
2018-03-02T10:43:34.259Z,1.5
2018-03-02T10:44:36.964Z,1.7
2018-03-02T10:45:39.378Z,1.4
2018-03-02T10:46:42.110Z,1.4
2018-03-02T10:47:44.529Z,1.4
2018-03-02T10:48:46.952Z,1.1
2018-03-02T10:49:49.378Z,1.1
2018-03-02T10:50:51.799Z,1.1
2018-03-02T10:51:54.225Z,1.4
2018-03-02T10:52:56.659Z,1.5
2018-03-02T10:53:59.076Z,1.5
2018-03-02T10:55:01.791Z,1.2
2018-03-02T10:56:04.505Z,1.1
2018-03-02T10:57:06.921Z,1.2
2018-03-02T10:58:09.350Z,1.1
2018-03-02T10:59:12.146Z,1.1
2018-03-02T11:00:14.562Z,1.2
2018-03-02T11:01:16.986Z,1.4
2018-03-02T11:02:19.972Z,1.4
2018-03-02T11:03:22.389Z,1.6
2018-03-02T11:04:25.124Z,1.4
2018-03-02T11:05:27.535Z,1.2
2018-03-02T11:06:30.561Z,1.5
2018-03-02T11:07:33.292Z,1.3
2018-03-02T11:08:35.719Z,1.2
2018-03-02T11:09:38.137Z,1.1
2018-03-02T11:10:40.566Z,1.1
2018-03-02T11:11:43.271Z,1.1
2018-03-02T11:12:45.689Z,1.6
2018-03-02T11:13:48.109Z,1.4
2018-03-02T11:14:50.523Z,1.5
2018-03-02T11:15:52.951Z,1.2
2018-03-02T11:16:55.361Z,1.2
2018-03-02T11:17:58.082Z,1.1
2018-03-02T11:19:00.500Z,1.2
2018-03-02T11:20:02.926Z,1.1
2018-03-02T11:21:05.353Z,1.4
2018-03-02T11:22:07.776Z,1.5
2018-03-02T11:23:10.473Z,1.4
2018-03-02T11:24:12.911Z,1.4
2018-03-02T11:25:15.313Z,1.2
2018-03-02T11:26:17.740Z,1.1
2018-03-02T11:27:20.160Z,1.1
2018-03-02T11:28:22.569Z,1.1
2018-03-02T11:29:24.989Z,1.4
2018-03-02T11:30:27.702Z,1.5
2018-03-02T11:31:30.124Z,1.4
2018-03-02T11:32:32.546Z,1.3
2018-03-02T11:33:34.963Z,1.3
2018-03-02T11:34:37.377Z,1.1
2018-03-02T11:35:40.197Z,1.1
2018-03-02T11:36:42.580Z,1.7
2018-03-02T11:37:45.001Z,1.5
2018-03-02T11:38:47.415Z,1.5
2018-03-02T11:39:50.124Z,1.4
2018-03-02T11:40:52.543Z,1.3
2018-03-02T11:41:54.956Z,1.3
2018-03-02T11:42:57.379Z,1.1
2018-03-02T11:43:59.804Z,1.1
2018-03-02T11:45:02.218Z,1.1
2018-03-02T11:46:04.653Z,1.4
2018-03-02T11:47:07.093Z,1.5
2018-03-02T11:48:09.494Z,1.3
2018-03-02T11:49:11.914Z,1.2
2018-03-02T11:50:14.331Z,1.2
2018-03-02T11:51:17.483Z,1.2
2018-03-02T11:52:20.094Z,1.1
2018-03-02T11:53:22.835Z,1.2
2018-03-02T11:54:25.256Z,1.1
2018-03-02T11:55:27.677Z,1.1
2018-03-02T11:56:30.097Z,1.5
2018-03-02T11:57:32.520Z,1.5
2018-03-02T11:58:34.940Z,1.3
2018-03-02T11:59:37.348Z,1.3
2018-03-02T12:00:40.087Z,1.1
2018-03-02T12:01:42.481Z,1.2
2018-03-02T12:02:44.913Z,1.2
2018-03-02T12:03:47.615Z,1.5
2018-03-02T12:04:50.045Z,1.5
2018-03-02T12:05:52.454Z,1.5
2018-03-02T12:06:54.889Z,1.4
2018-03-02T12:07:57.301Z,1.3
2018-03-02T12:08:59.721Z,1.1
2018-03-02T12:10:02.138Z,1.1
2018-03-02T12:11:04.566Z,1.1
2018-03-02T12:12:06.987Z,1.7
2018-03-02T12:13:09.413Z,1.6
2018-03-02T12:14:11.834Z,1.3
2018-03-02T12:15:14.261Z,1.3
2018-03-02T12:16:16.681Z,1.2
2018-03-02T12:17:19.107Z,1.2
2018-03-02T12:18:21.809Z,1.5
2018-03-02T12:19:24.228Z,1.8
2018-03-02T12:20:26.657Z,1.6
2018-03-02T12:21:29.074Z,1.4
2018-03-02T12:22:31.516Z,1.2
2018-03-02T12:23:34.263Z,1.2
2018-03-02T12:24:36.683Z,1.2
2018-03-02T12:25:39.392Z,1.1
2018-03-02T12:26:41.814Z,1.2
2018-03-02T12:27:44.536Z,1.5
2018-03-02T12:28:46.960Z,1.6
2018-03-02T12:29:49.391Z,1.6
2018-03-02T12:30:51.803Z,1.3
2018-03-02T12:31:54.237Z,1.2
2018-03-02T12:32:56.650Z,1.2
2018-03-02T12:33:59.678Z,1.1
2018-03-02T12:35:02.432Z,1.2
2018-03-02T12:36:05.109Z,1.1
2018-03-02T12:37:07.530Z,1.7
2018-03-02T12:38:09.959Z,1.6
2018-03-02T12:39:12.686Z,1.7
2018-03-02T12:40:15.109Z,1.6
2018-03-02T12:41:17.537Z,1.5
2018-03-02T12:42:20.248Z,1.4
2018-03-02T12:43:22.674Z,1.2
2018-03-02T12:44:25.113Z,1.2
2018-03-02T12:45:27.507Z,1.2
2018-03-02T12:46:29.927Z,1.2
2018-03-02T12:47:32.643Z,1.6
2018-03-02T12:48:35.053Z,1.5
2018-03-02T12:49:37.475Z,1.3
2018-03-02T12:50:39.896Z,1.4
2018-03-02T12:51:42.330Z,1.2
2018-03-02T12:52:44.745Z,1.2
2018-03-02T12:53:47.163Z,1.1
2018-03-02T12:54:50.156Z,1.5
2018-03-02T12:55:52.576Z,1.5
2018-03-02T12:56:55.304Z,1.5
2018-03-02T12:57:57.735Z,1.5
2018-03-02T12:59:00.153Z,1.4
2018-03-02T13:00:02.956Z,1.4
2018-03-02T13:01:05.325Z,1.2
2018-03-02T13:02:07.745Z,1.1
2018-03-02T13:03:10.161Z,1.2
2018-03-02T13:04:12.865Z,1.5
2018-03-02T13:05:15.575Z,1.6
2018-03-02T13:06:18.299Z,1.5
2018-03-02T13:07:21.009Z,1.6
2018-03-02T13:08:23.426Z,1.7
2018-03-02T13:09:25.851Z,1.4
2018-03-02T13:10:28.275Z,1.2
2018-03-02T13:11:30.702Z,1.2
2018-03-02T13:12:33.126Z,1.2
2018-03-02T13:13:35.828Z,1.7
2018-03-02T13:14:38.544Z,1.5
2018-03-02T13:15:40.954Z,1.8
2018-03-02T13:16:43.386Z,1.6
2018-03-02T13:17:45.805Z,1.6
2018-03-02T13:18:48.252Z,1.2
2018-03-02T13:19:50.650Z,1.2
2018-03-02T13:20:53.072Z,1.1
2018-03-02T13:21:55.492Z,1.2
2018-03-02T13:22:57.917Z,1.5
2018-03-02T13:24:00.401Z,1.3
2018-03-02T13:25:02.755Z,1.4
2018-03-02T13:26:05.181Z,1.2
2018-03-02T13:27:07.597Z,1.1
2018-03-02T13:28:10.023Z,1.1
2018-03-02T13:29:12.450Z,1.4
2018-03-02T13:30:14.864Z,1.4
2018-03-02T13:31:17.288Z,1.4
2018-03-02T13:32:19.704Z,1.3
2018-03-02T13:33:22.416Z,1.3
2018-03-02T13:34:25.137Z,1.2
2018-03-02T13:35:27.557Z,1.1
2018-03-02T13:36:29.975Z,1.1
2018-03-02T13:37:32.403Z,1.1
2018-03-02T13:38:34.815Z,1.5
2018-03-02T13:39:37.241Z,1.5
2018-03-02T13:40:39.661Z,1.3
2018-03-02T13:41:42.073Z,1.1
2018-03-02T13:42:44.778Z,1.1
2018-03-02T13:43:47.497Z,1.2
2018-03-02T13:44:49.911Z,1.1
2018-03-02T13:45:52.620Z,1.1
2018-03-02T13:46:55.037Z,1.5
2018-03-02T13:47:57.448Z,1.4
2018-03-02T13:48:59.880Z,1.4
2018-03-02T13:50:02.587Z,1.3
2018-03-02T13:51:05.007Z,1.4
2018-03-02T13:52:07.425Z,1.1
2018-03-02T13:53:10.149Z,1.1
2018-03-02T13:54:12.577Z,1.1
2018-03-02T13:55:15.000Z,1.1
2018-03-02T13:56:17.692Z,1.4
2018-03-02T13:57:20.118Z,1.4
2018-03-02T13:58:22.536Z,1.4
2018-03-02T13:59:24.953Z,1.4
2018-03-02T14:00:27.367Z,1.3
2018-03-02T14:01:29.781Z,1.2
2018-03-02T14:02:32.193Z,1.1
2018-03-02T14:03:34.625Z,1.1
2018-03-02T14:04:37.035Z,1.4
2018-03-02T14:05:39.458Z,1.5
2018-03-02T14:06:41.878Z,1.5
2018-03-02T14:07:44.303Z,1.4
2018-03-02T14:08:46.724Z,1.1
2018-03-02T14:09:49.137Z,1.1
2018-03-02T14:10:51.847Z,1.1
2018-03-02T14:11:54.266Z,1.5
2018-03-02T14:12:56.959Z,1.4
2018-03-02T14:13:59.381Z,1.5
2018-03-02T14:15:02.092Z,1.5
2018-03-02T14:16:04.511Z,1.4
2018-03-02T14:17:07.225Z,1.3
2018-03-02T14:18:09.644Z,1.1
2018-03-02T14:19:12.352Z,1.1
2018-03-02T14:20:14.768Z,1.1
2018-03-02T14:21:17.186Z,1.1
2018-03-02T14:22:19.606Z,1.1
2018-03-02T14:23:22.024Z,1.4
2018-03-02T14:24:24.441Z,1.5
2018-03-02T14:25:26.859Z,1.3